Time;durP1;ratioP1;P1;durP2;ratioP2;P2;SDS_P1;SDS_P2;PMS_P1;PMS_P2;Temp;Humidity;BMP_temperature;BMP_pressure;BME280_temperature;BME280_humidity;BME280_pressure;Samples;Min_cycle;Max_cycle;Signal;HPM_P1;HPM_P2
2023/06/30 00:01:49;;;;;;;17.83;16.13;;;17.00;99.90;;;;;;5139280;27;20527;-60
2023/06/30 00:04:17;;;;;;;17.17;15.57;;;17.10;99.90;;;;;;5139178;27;20968;-64
2023/06/30 00:06:49;;;;;;;18.87;17.27;;;16.90;99.90;;;;;;5139346;27;20463;-60
2023/06/30 00:09:16;;;;;;;19.13;17.23;;;16.80;99.90;;;;;;5139533;27;20470;-60
2023/06/30 00:11:43;;;;;;;16.50;15.10;;;16.80;99.90;;;;;;5139089;27;20454;-60
2023/06/30 00:14:11;;;;;;;19.50;17.80;;;16.80;99.90;;;;;;5139274;27;20486;-59
2023/06/30 00:16:38;;;;;;;18.17;16.50;;;16.90;99.90;;;;;;5139112;27;20894;-59
2023/06/30 00:19:05;;;;;;;19.90;18.30;;;17.00;99.90;;;;;;5139279;27;20463;-59
2023/06/30 00:21:32;;;;;;;18.80;17.30;;;17.00;99.90;;;;;;5139161;27;20465;-60
2023/06/30 00:24:04;;;;;;;20.83;19.13;;;17.00;99.90;;;;;;5138362;27;20467;-59
2023/06/30 00:26:31;;;;;;;18.70;17.10;;;16.90;99.90;;;;;;5138791;27;20499;-60
2023/06/30 00:29:00;;;;;;;18.83;17.13;;;16.80;99.90;;;;;;5138708;27;20459;-57
2023/06/30 00:31:27;;;;;;;18.77;17.20;;;16.80;99.90;;;;;;5139191;27;20463;-58
2023/06/30 00:33:55;;;;;;;19.67;18.17;;;16.90;99.90;;;;;;5139108;27;20454;-58
2023/06/30 00:36:22;;;;;;;19.97;18.20;;;16.90;99.90;;;;;;5137491;27;20489;-58
2023/06/30 00:38:49;;;;;;;20.93;19.13;;;17.00;99.90;;;;;;5138395;27;20467;-59
2023/06/30 00:41:18;;;;;;;23.57;21.57;;;17.10;99.90;;;;;;5138598;27;20457;-59
2023/06/30 00:43:45;;;;;;;21.90;20.00;;;17.10;99.90;;;;;;5138641;27;20447;-61
2023/06/30 00:46:17;;;;;;;21.10;19.40;;;17.00;99.90;;;;;;5138129;27;20486;-59
2023/06/30 00:48:44;;;;;;;21.43;19.73;;;17.10;99.90;;;;;;5138317;27;20473;-62
2023/06/30 00:51:13;;;;;;;20.27;18.57;;;17.10;99.90;;;;;;5138520;27;21000;-63
2023/06/30 00:53:40;;;;;;;16.73;15.40;;;17.00;99.90;;;;;;5138751;27;20463;-62
2023/06/30 00:56:07;;;;;;;11.20;10.30;;;16.80;99.90;;;;;;5138469;27;20896;-63
2023/06/30 00:58:36;;;;;;;7.13;6.60;;;16.30;99.90;;;;;;5138400;27;20481;-65
2023/06/30 01:01:10;;;;;;;7.50;6.83;;;16.00;99.90;;;;;;5137615;27;20490;-64
2023/06/30 01:03:43;;;;;;;6.80;6.10;;;16.00;99.90;;;;;;5137798;27;20557;-65
2023/06/30 01:06:16;;;;;;;6.60;5.90;;;15.90;99.90;;;;;;5138781;27;20490;-65
2023/06/30 01:08:49;;;;;;;6.67;5.97;;;15.70;99.90;;;;;;5138648;27;20827;-65
2023/06/30 01:11:17;;;;;;;5.60;5.10;;;15.80;99.90;;;;;;5139188;27;20462;-65
2023/06/30 01:13:47;;;;;;;5.70;4.63;;;15.80;99.90;;;;;;5139161;27;20465;-63
2023/06/30 01:16:15;;;;;;;5.70;4.70;;;15.70;99.90;;;;;;5138668;27;20455;-62
2023/06/30 01:18:45;;;;;;;4.93;4.53;;;15.50;99.90;;;;;;5138979;27;20463;-62
2023/06/30 01:21:14;;;;;;;4.80;4.10;;;15.40;99.90;;;;;;5138776;27;20464;-63
2023/06/30 01:23:50;;;;;;;6.00;4.50;;;15.50;99.90;;;;;;5139087;27;20459;-64
2023/06/30 01:26:18;;;;;;;5.70;5.03;;;15.40;99.90;;;;;;5138431;27;20512;-63
2023/06/30 01:28:47;;;;;;;5.60;4.90;;;15.30;99.90;;;;;;5138521;27;20575;-64
2023/06/30 01:31:14;;;;;;;5.30;4.10;;;15.30;99.90;;;;;;5138878;27;20466;-64
2023/06/30 01:33:41;;;;;;;5.80;4.50;;;15.20;99.90;;;;;;5138477;27;20450;-64
2023/06/30 01:36:09;;;;;;;5.03;3.70;;;15.20;99.90;;;;;;5138479;27;20455;-62
2023/06/30 01:38:36;;;;;;;7.20;4.97;;;15.20;99.90;;;;;;5137903;27;20458;-63
2023/06/30 01:41:06;;;;;;;5.60;4.53;;;15.10;99.90;;;;;;5138439;27;20772;-64
2023/06/30 01:43:35;;;;;;;4.90;4.03;;;15.00;99.90;;;;;;5138514;27;20462;-62
2023/06/30 01:46:04;;;;;;;6.60;4.83;;;15.20;99.90;;;;;;5137813;27;20482;-62
2023/06/30 01:48:32;;;;;;;4.80;3.47;;;15.10;99.90;;;;;;5138189;27;20511;-63
2023/06/30 01:51:00;;;;;;;5.43;4.23;;;15.20;99.90;;;;;;5138243;27;20871;-62
2023/06/30 01:53:27;;;;;;;5.30;4.80;;;15.00;99.90;;;;;;5138329;27;20466;-61
2023/06/30 01:55:55;;;;;;;6.20;5.10;;;15.10;99.90;;;;;;5138392;27;20758;-61
2023/06/30 01:58:22;;;;;;;7.50;5.07;;;15.00;99.90;;;;;;5137853;27;20466;-61
2023/06/30 02:00:50;;;;;;;6.23;4.63;;;15.00;99.90;;;;;;5138126;27;20465;-60
2023/06/30 02:03:18;;;;;;;6.03;4.80;;;14.90;99.90;;;;;;5138235;28;20894;-60
2023/06/30 02:05:45;;;;;;;6.63;5.60;;;15.10;99.90;;;;;;5138004;28;20489;-59
2023/06/30 02:08:12;;;;;;;6.50;5.17;;;15.20;99.90;;;;;;5138117;28;20459;-61
2023/06/30 02:10:40;;;;;;;6.43;5.17;;;15.10;99.90;;;;;;5137618;28;20459;-61
2023/06/30 02:13:07;;;;;;;5.97;5.10;;;15.10;99.90;;;;;;5137714;28;20465;-59
2023/06/30 02:15:34;;;;;;;8.77;5.40;;;15.00;99.90;;;;;;5138169;28;20596;-58
2023/06/30 02:18:03;;;;;;;6.73;6.07;;;15.00;99.90;;;;;;5138150;28;20545;-57
2023/06/30 02:20:32;;;;;;;5.73;5.10;;;15.00;99.90;;;;;;5137910;28;20462;-57
2023/06/30 02:22:59;;;;;;;5.73;5.23;;;15.00;99.90;;;;;;5138191;28;20757;-57
2023/06/30 02:25:26;;;;;;;9.67;6.00;;;15.10;99.90;;;;;;5138240;28;20486;-57
2023/06/30 02:27:53;;;;;;;8.43;6.57;;;15.20;99.90;;;;;;5137957;28;20746;-57
2023/06/30 02:30:21;;;;;;;8.57;6.23;;;15.10;99.90;;;;;;5137261;28;20454;-57
2023/06/30 02:32:48;;;;;;;8.57;7.07;;;15.10;99.90;;;;;;5138083;28;20878;-57
2023/06/30 02:35:15;;;;;;;7.80;7.10;;;15.20;99.90;;;;;;5137914;28;20455;-57
2023/06/30 02:37:43;;;;;;;11.03;8.27;;;15.30;99.90;;;;;;5138039;28;20466;-57
2023/06/30 02:40:11;;;;;;;10.63;8.80;;;15.30;99.90;;;;;;5137579;28;20756;-57
2023/06/30 02:42:38;;;;;;;10.00;9.00;;;15.30;99.90;;;;;;5137096;28;20469;-56
2023/06/30 02:45:06;;;;;;;9.37;8.67;;;15.30;99.90;;;;;;5137710;28;20777;-57
2023/06/30 02:47:33;;;;;;;10.57;9.43;;;15.10;99.90;;;;;;5137897;28;20888;-56
2023/06/30 02:50:00;;;;;;;10.77;9.77;;;15.00;99.90;;;;;;5137882;28;20887;-57
2023/06/30 02:52:28;;;;;;;12.37;11.27;;;15.00;99.90;;;;;;5137407;28;20454;-58
2023/06/30 02:54:56;;;;;;;14.20;12.80;;;15.00;99.90;;;;;;5137997;28;20555;-58
2023/06/30 02:57:23;;;;;;;16.50;15.20;;;14.90;99.90;;;;;;5137041;28;20466;-59
2023/06/30 02:59:50;;;;;;;16.73;15.27;;;14.90;99.90;;;;;;5139850;27;20889;-59
2023/06/30 03:02:17;;;;;;;16.20;14.50;;;15.00;99.90;;;;;;5141260;27;20941;-61
2023/06/30 03:04:44;;;;;;;18.63;16.97;;;14.80;99.90;;;;;;5141236;27;20495;-60
2023/06/30 03:07:12;;;;;;;18.20;16.50;;;14.80;99.90;;;;;;5141304;27;20945;-59
2023/06/30 03:09:39;;;;;;;19.80;17.90;;;15.00;99.90;;;;;;5141396;27;20511;-59
2023/06/30 03:12:08;;;;;;;23.03;20.93;;;14.90;99.90;;;;;;5141445;27;20461;-58
2023/06/30 03:14:36;;;;;;;20.67;18.57;;;14.80;99.90;;;;;;5141090;27;20766;-58
2023/06/30 03:17:03;;;;;;;21.37;19.07;;;14.80;99.90;;;;;;5141024;27;20458;-58
2023/06/30 03:19:30;;;;;;;20.83;18.60;;;14.70;99.90;;;;;;5141253;27;20918;-56
2023/06/30 03:21:58;;;;;;;23.30;17.43;;;14.60;99.90;;;;;;5141189;27;20466;-57
2023/06/30 03:24:25;;;;;;;20.07;18.00;;;14.60;99.90;;;;;;5140704;27;20462;-57
2023/06/30 03:26:52;;;;;;;18.97;16.27;;;14.60;99.90;;;;;;5140995;27;20469;-58
2023/06/30 03:29:21;;;;;;;20.40;18.17;;;14.60;99.90;;;;;;5141169;27;20469;-57
2023/06/30 03:31:48;;;;;;;19.47;17.43;;;14.60;99.90;;;;;;5140947;27;20895;-57
2023/06/30 03:34:15;;;;;;;19.93;16.37;;;14.60;99.90;;;;;;5140904;27;20760;-57
2023/06/30 03:36:42;;;;;;;19.50;17.57;;;14.60;99.90;;;;;;5140677;27;20457;-57
2023/06/30 03:39:09;;;;;;;18.80;16.30;;;14.60;99.90;;;;;;5140629;27;20455;-57
2023/06/30 03:41:36;;;;;;;17.60;15.80;;;14.60;99.90;;;;;;5140673;27;20553;-58
2023/06/30 03:44:04;;;;;;;17.50;15.73;;;14.60;99.90;;;;;;5140253;27;20458;-58
2023/06/30 03:46:32;;;;;;;18.03;16.17;;;14.50;99.90;;;;;;5140405;27;20471;-57
2023/06/30 03:48:59;;;;;;;15.57;14.07;;;14.60;99.90;;;;;;5140719;27;20465;-57
2023/06/30 03:51:27;;;;;;;15.00;13.50;;;14.60;99.90;;;;;;5140798;27;20801;-57
2023/06/30 03:53:54;;;;;;;15.30;13.70;;;14.70;99.90;;;;;;5140808;27;20459;-57
2023/06/30 03:56:21;;;;;;;14.17;12.70;;;14.60;99.90;;;;;;5140018;27;20461;-57
2023/06/30 03:58:48;;;;;;;15.50;12.90;;;14.60;99.90;;;;;;5140059;27;20520;-58
2023/06/30 04:01:15;;;;;;;14.53;12.83;;;14.60;99.90;;;;;;5140219;27;20461;-58
2023/06/30 04:03:44;;;;;;;19.67;13.17;;;14.70;99.90;;;;;;5140159;27;20463;-57
2023/06/30 04:06:11;;;;;;;13.77;12.43;;;14.70;99.90;;;;;;5140150;27;20457;-58
2023/06/30 04:08:38;;;;;;;13.87;12.50;;;14.70;99.90;;;;;;5140053;27;20790;-57
2023/06/30 04:11:06;;;;;;;12.57;11.27;;;14.80;99.90;;;;;;5140313;27;20465;-58
2023/06/30 04:13:33;;;;;;;15.60;11.50;;;14.70;99.90;;;;;;5140174;27;20463;-57
2023/06/30 04:16:00;;;;;;;15.23;11.93;;;14.70;99.90;;;;;;5140146;27;20721;-58
2023/06/30 04:18:28;;;;;;;13.20;11.63;;;14.70;99.90;;;;;;5139861;27;20468;-57
2023/06/30 04:20:56;;;;;;;13.17;10.90;;;14.80;99.90;;;;;;5139747;27;20455;-58
2023/06/30 04:23:23;;;;;;;11.47;10.27;;;15.00;99.90;;;;;;5139896;27;20462;-57
2023/06/30 04:25:50;;;;;;;11.70;9.67;;;15.10;99.90;;;;;;5140161;27;20483;-57
2023/06/30 04:28:18;;;;;;;10.93;9.70;;;15.10;99.90;;;;;;5139468;27;20466;-58
2023/06/30 04:30:45;;;;;;;11.77;9.80;;;15.10;99.90;;;;;;5138220;27;20497;-58
2023/06/30 04:33:12;;;;;;;11.10;9.23;;;15.00;99.90;;;;;;5138735;27;20470;-58
2023/06/30 04:35:43;;;;;;;11.27;9.23;;;15.00;99.90;;;;;;5139735;27;20554;-57
2023/06/30 04:38:12;;;;;;;15.20;9.97;;;14.90;99.90;;;;;;5137581;27;20471;-57
2023/06/30 04:40:39;;;;;;;11.33;7.83;;;15.00;99.90;;;;;;5137960;27;20458;-57
2023/06/30 04:43:12;;;;;;;11.77;7.83;;;15.10;99.90;;;;;;5118845;28;20456;-58
2023/06/30 04:45:39;;;;;;;8.87;7.97;;;15.00;99.90;;;;;;5118737;28;20486;-57
2023/06/30 04:48:07;;;;;;;10.07;9.07;;;14.90;99.90;;;;;;5119282;28;20460;-58
2023/06/30 04:50:34;;;;;;;12.17;8.17;;;15.10;99.90;;;;;;5118619;28;20464;-58
2023/06/30 04:53:01;;;;;;;12.60;8.63;;;15.00;99.90;;;;;;5118918;28;20467;-58
2023/06/30 04:55:30;;;;;;;8.43;7.63;;;14.90;99.90;;;;;;5119650;27;20467;-57
2023/06/30 04:57:57;;;;;;;10.57;7.50;;;14.80;99.90;;;;;;5139280;27;20460;-57
2023/06/30 05:00:25;;;;;;;9.60;7.30;;;14.70;99.90;;;;;;5138840;27;20459;-58
2023/06/30 05:02:53;;;;;;;11.27;6.87;;;14.80;99.90;;;;;;5139090;27;20863;-57
2023/06/30 05:05:20;;;;;;;8.83;6.50;;;14.80;99.90;;;;;;5139004;27;20887;-58
2023/06/30 05:07:47;;;;;;;8.53;7.07;;;14.80;99.90;;;;;;5139022;27;20498;-58
2023/06/30 05:10:16;;;;;;;8.27;5.43;;;14.70;99.90;;;;;;5139047;27;20458;-58
2023/06/30 05:12:44;;;;;;;10.70;6.40;;;14.70;99.90;;;;;;5139102;27;20466;-58
2023/06/30 05:15:11;;;;;;;12.53;7.80;;;14.70;99.90;;;;;;5138377;27;20463;-58
2023/06/30 05:17:38;;;;;;;12.50;6.27;;;14.70;99.90;;;;;;5139300;27;20455;-58
2023/06/30 05:20:08;;;;;;;6.57;5.87;;;14.70;99.90;;;;;;5139243;27;20880;-58
2023/06/30 05:22:35;;;;;;;7.67;5.80;;;14.70;99.90;;;;;;5137720;27;20545;-58
2023/06/30 05:25:02;;;;;;;9.00;6.30;;;14.60;99.90;;;;;;5136527;27;20732;-58
2023/06/30 05:27:29;;;;;;;9.20;5.47;;;14.60;99.90;;;;;;5119208;28;20523;-58
2023/06/30 05:29:58;;;;;;;8.30;5.30;;;14.70;99.90;;;;;;5136364;27;20879;-59
2023/06/30 05:32:25;;;;;;;6.10;5.17;;;14.80;99.90;;;;;;5117744;28;20455;-58
2023/06/30 05:34:52;;;;;;;8.43;5.30;;;14.80;99.90;;;;;;5117773;28;20880;-58
2023/06/30 05:37:19;;;;;;;9.53;6.07;;;14.80;99.90;;;;;;5117180;28;20456;-59
2023/06/30 05:39:46;;;;;;;10.33;6.00;;;14.80;99.90;;;;;;5117637;28;20460;-59
2023/06/30 05:42:13;;;;;;;8.03;5.23;;;14.90;99.90;;;;;;5117278;28;20464;-59
2023/06/30 05:44:40;;;;;;;14.03;6.07;;;14.90;99.90;;;;;;5126798;27;20455;-58
2023/06/30 05:47:09;;;;;;;11.27;5.50;;;14.80;99.90;;;;;;5138026;27;20494;-59
2023/06/30 05:49:36;;;;;;;7.47;5.33;;;14.80;99.90;;;;;;5124856;27;20440;-59
2023/06/30 05:52:03;;;;;;;8.83;5.53;;;14.90;99.90;;;;;;5132462;27;20482;-58
2023/06/30 05:54:30;;;;;;;10.70;5.47;;;14.90;99.90;;;;;;5137808;27;20459;-58
2023/06/30 05:56:57;;;;;;;10.80;5.97;;;14.90;1.00;;;;;;5132898;27;20902;-58
2023/06/30 05:59:27;;;;;;;10.63;6.27;;;14.80;1.00;;;;;;5138120;27;20481;-58
2023/06/30 06:01:55;;;;;;;7.83;6.00;;;14.90;1.00;;;;;;5116865;28;20487;-58
2023/06/30 06:04:24;;;;;;;10.00;5.67;;;15.00;1.00;;;;;;5117501;28;20455;-58
2023/06/30 06:06:51;;;;;;;12.10;5.70;;;15.20;1.00;;;;;;5117131;28;20480;-58
2023/06/30 06:09:18;;;;;;;6.30;5.57;;;15.20;1.00;;;;;;5117741;28;20722;-58
2023/06/30 06:11:46;;;;;;;8.83;6.70;;;15.50;1.00;;;;;;5117696;28;20455;-58
2023/06/30 06:14:13;;;;;;;9.63;6.77;;;15.60;99.90;;;;;;5116141;28;20489;-59
2023/06/30 06:16:44;;;;;;;11.30;7.17;;;15.50;99.90;;;;;;5116004;28;20434;-59
2023/06/30 06:19:11;;;;;;;8.57;6.20;;;15.60;99.90;;;;;;5115651;28;20463;-59
2023/06/30 06:21:40;;;;;;;9.53;6.20;;;15.50;99.90;;;;;;5116005;28;20460;-59
2023/06/30 06:24:08;;;;;;;9.30;6.43;;;15.50;99.90;;;;;;5115086;28;20749;-60
2023/06/30 06:26:35;;;;;;;7.70;6.70;;;15.60;99.90;;;;;;5124089;28;20543;-60
2023/06/30 06:29:03;;;;;;;8.07;6.47;;;15.50;99.90;;;;;;5136064;28;20515;-61
2023/06/30 06:31:30;;;;;;;8.23;5.50;;;15.60;99.90;;;;;;5133579;28;20437;-60
2023/06/30 06:33:57;;;;;;;12.50;6.10;;;15.80;99.90;;;;;;5116829;28;20466;-60
2023/06/30 06:36:24;;;;;;;7.20;6.50;;;15.80;99.90;;;;;;5121154;28;20754;-60
2023/06/30 06:38:53;;;;;;;7.43;5.90;;;16.00;99.90;;;;;;5120971;28;20459;-60
2023/06/30 06:41:20;;;;;;;10.77;6.27;;;16.30;99.90;;;;;;5121095;28;20460;-60
2023/06/30 06:43:47;;;;;;;8.83;5.50;;;16.50;28.50;;;;;;5121144;28;20463;-61
2023/06/30 06:46:14;;;;;;;10.73;4.80;;;16.60;1.00;;;;;;5120449;28;20433;-60
2023/06/30 06:48:42;;;;;;;5.90;4.90;;;16.60;1.00;;;;;;5121091;27;20463;-61
2023/06/30 06:51:09;;;;;;;8.83;5.23;;;16.50;1.00;;;;;;5121244;28;20463;-60
2023/06/30 06:53:36;;;;;;;9.30;5.20;;;16.40;1.00;;;;;;5120655;28;20756;-61
2023/06/30 06:56:05;;;;;;;6.10;3.83;;;16.00;1.00;;;;;;5120809;28;20532;-61
2023/06/30 06:58:35;;;;;;;7.07;4.43;;;16.10;1.00;;;;;;5131569;27;20465;-61
2023/06/30 07:01:02;;;;;;;6.57;4.27;;;16.20;1.00;;;;;;5120425;28;20509;-61
2023/06/30 07:03:30;;;;;;;9.80;4.17;;;16.30;1.00;;;;;;5125734;27;20469;-63
2023/06/30 07:05:58;;;;;;;6.80;4.10;;;16.20;1.00;;;;;;5136676;27;20454;-61
2023/06/30 07:08:26;;;;;;;7.77;4.73;;;16.20;1.00;;;;;;5133380;27;20488;-60
2023/06/30 07:10:53;;;;;;;4.83;2.80;;;16.30;1.00;;;;;;5124567;27;20527;-61
2023/06/30 07:13:23;;;;;;;6.20;3.97;;;16.40;1.00;;;;;;5137097;27;20556;-61
2023/06/30 07:15:50;;;;;;;7.30;4.70;;;16.50;1.00;;;;;;5136277;27;20462;-61
2023/06/30 07:18:18;;;;;;;5.30;3.93;;;16.90;1.00;;;;;;5138026;27;20447;-61
2023/06/30 07:20:45;;;;;;;9.20;4.10;;;17.50;1.00;;;;;;5139519;27;20450;-61
2023/06/30 07:23:12;;;;;;;4.13;3.70;;;17.70;1.00;;;;;;5139215;27;20778;-60
2023/06/30 07:25:40;;;;;;;5.40;3.13;;;17.90;1.00;;;;;;5136787;27;20470;-61
2023/06/30 07:28:07;;;;;;;7.87;3.27;;;17.90;99.90;;;;;;5139756;27;20489;-61
2023/06/30 07:30:36;;;;;;;7.50;4.13;;;18.00;99.90;;;;;;5139985;27;20473;-61
2023/06/30 07:33:03;;;;;;;4.20;2.77;;;18.40;1.00;;;;;;5136547;27;20470;-62
2023/06/30 07:35:30;;;;;;;6.50;3.47;;;18.40;99.90;;;;;;5120343;28;20452;-61
2023/06/30 07:37:57;;;;;;;6.20;3.93;;;18.60;99.90;;;;;;5120500;28;20452;-61
2023/06/30 07:40:24;;;;;;;4.60;3.10;;;18.30;99.90;;;;;;5120353;28;20795;-61
2023/06/30 07:42:53;;;;;;;5.40;3.73;;;18.50;99.90;;;;;;5120020;28;20456;-61
2023/06/30 07:45:20;;;;;;;5.27;3.40;;;19.10;99.90;;;;;;5118982;28;20468;-61
2023/06/30 07:47:49;;;;;;;7.73;3.07;;;19.20;99.90;;;;;;5118003;28;20487;-61
2023/06/30 07:50:16;;;;;;;5.20;3.27;;;18.90;99.90;;;;;;5117615;28;20459;-63
2023/06/30 07:52:45;;;;;;;4.50;3.40;;;19.30;99.90;;;;;;5118087;28;20468;-63
2023/06/30 07:55:15;;;;;;;8.60;3.87;;;19.40;99.90;;;;;;5118629;28;20554;-62
2023/06/30 07:57:43;;;;;;;4.57;2.77;;;19.00;99.90;;;;;;5118592;28;20762;-64
2023/06/30 08:00:11;;;;;;;4.20;2.63;;;19.00;99.90;;;;;;5118272;28;20869;-66
2023/06/30 08:02:39;;;;;;;4.63;2.80;;;18.40;99.90;;;;;;5119059;28;20494;-63
2023/06/30 08:05:08;;;;;;;5.50;2.37;;;18.10;99.90;;;;;;5119312;28;20460;-62
2023/06/30 08:07:35;;;;;;;5.33;2.70;;;18.30;99.90;;;;;;5119515;28;20483;-63
2023/06/30 08:10:03;;;;;;;4.60;2.73;;;18.60;99.90;;;;;;5126418;27;20571;-63
2023/06/30 08:12:30;;;;;;;4.60;3.10;;;19.20;99.90;;;;;;5139096;27;20998;-63
2023/06/30 08:14:57;;;;;;;3.43;2.30;;;18.90;99.90;;;;;;5130775;27;20861;-62
2023/06/30 08:17:24;;;;;;;6.03;2.53;;;19.40;99.90;;;;;;5119872;28;20460;-62
2023/06/30 08:19:51;;;;;;;3.20;2.40;;;19.20;99.90;;;;;;5119696;28;20855;-61
2023/06/30 08:22:21;;;;;;;5.40;2.27;;;18.90;99.90;;;;;;5128521;27;20450;-62
2023/06/30 08:24:48;;;;;;;3.87;2.60;;;18.90;99.90;;;;;;5139434;27;20462;-61
2023/06/30 08:27:16;;;;;;;5.53;3.23;;;18.70;99.90;;;;;;5138969;27;20493;-62
2023/06/30 08:29:44;;;;;;;5.40;2.60;;;19.10;99.90;;;;;;5122710;27;20481;-65
2023/06/30 08:32:11;;;;;;;7.17;3.20;;;19.50;99.90;;;;;;5117317;27;20463;-62
2023/06/30 08:34:38;;;;;;;6.60;2.70;;;20.00;99.90;;;;;;5137668;27;20575;-62
2023/06/30 08:37:06;;;;;;;5.23;3.13;;;20.80;99.90;;;;;;5137207;27;20473;-63
2023/06/30 08:39:34;;;;;;;3.80;2.80;;;20.80;99.90;;;;;;5118495;28;20463;-63
2023/06/30 08:42:03;;;;;;;3.90;2.80;;;20.00;99.90;;;;;;5119411;28;20808;-64
2023/06/30 08:44:33;;;;;;;4.00;2.67;;;19.70;99.90;;;;;;5118988;27;20869;-61
2023/06/30 08:47:02;;;;;;;5.47;2.37;;;20.30;99.90;;;;;;5117737;28;20959;-63
2023/06/30 08:49:31;;;;;;;3.43;2.10;;;20.00;99.90;;;;;;5117935;28;20456;-62
2023/06/30 08:51:59;;;;;;;4.33;2.43;;;20.30;99.90;;;;;;5118237;28;20467;-61
2023/06/30 08:54:28;;;;;;;3.93;2.70;;;20.70;99.90;;;;;;5117491;28;20455;-62
2023/06/30 08:57:00;;;;;;;3.80;2.10;;;21.00;99.90;;;;;;5117247;28;20502;-62
2023/06/30 08:59:28;;;;;;;3.10;2.60;;;21.50;99.90;;;;;;5139001;27;20462;-63
2023/06/30 09:01:57;;;;;;;4.83;2.70;;;21.90;99.90;;;;;;5139504;27;20488;-62
2023/06/30 09:04:26;;;;;;;3.90;2.10;;;22.10;99.90;;;;;;5119549;28;20895;-63
2023/06/30 09:06:54;;;;;;;3.77;2.57;;;22.40;99.90;;;;;;5131192;27;20959;-62
2023/06/30 09:09:26;;;;;;;5.10;2.57;;;21.20;99.90;;;;;;5148097;27;20466;-63
2023/06/30 09:11:59;;;;;;;6.20;2.60;;;21.30;99.90;;;;;;5152782;27;20459;-62
2023/06/30 09:14:33;;;;;;;4.73;2.47;;;21.20;99.90;;;;;;5142427;27;20474;-65
2023/06/30 09:17:01;;;;;;;5.30;2.73;;;21.00;99.90;;;;;;5143254;27;20459;-63
2023/06/30 09:19:28;;;;;;;3.23;2.57;;;21.20;99.90;;;;;;5144117;27;20469;-62
2023/06/30 09:21:56;;;;;;;3.50;1.90;;;21.20;99.90;;;;;;5158296;27;20454;-63
2023/06/30 09:24:23;;;;;;;3.87;2.63;;;21.00;99.90;;;;;;5150147;27;20462;-64
2023/06/30 09:26:51;;;;;;;4.10;3.00;;;21.10;99.90;;;;;;5144668;27;20455;-63
2023/06/30 09:29:23;;;;;;;3.73;2.10;;;21.50;99.90;;;;;;5125033;27;21021;-63
2023/06/30 09:31:51;;;;;;;4.43;2.50;;;21.20;99.90;;;;;;5122210;28;20526;-63
2023/06/30 09:34:19;;;;;;;3.70;2.43;;;21.20;99.90;;;;;;5123007;28;20516;-62
2023/06/30 09:36:51;;;;;;;4.63;2.60;;;21.10;99.90;;;;;;5121682;28;20456;-64
2023/06/30 09:39:19;;;;;;;4.40;2.20;;;21.90;99.90;;;;;;5124571;28;20498;-63
2023/06/30 09:41:48;;;;;;;2.53;2.10;;;22.70;99.90;;;;;;5124006;28;20459;-64
2023/06/30 09:44:17;;;;;;;4.70;2.40;;;22.50;99.90;;;;;;5124016;28;20748;-64
2023/06/30 09:46:50;;;;;;;3.60;2.40;;;22.60;99.90;;;;;;5124633;28;20522;-64
2023/06/30 09:49:28;;;;;;;4.83;2.10;;;22.70;99.90;;;;;;5124577;28;20497;-65
2023/06/30 09:51:57;;;;;;;4.03;2.80;;;22.40;99.90;;;;;;5121935;28;20494;-64
2023/06/30 09:54:24;;;;;;;3.10;2.07;;;21.90;99.90;;;;;;5125576;28;20459;-64
2023/06/30 09:56:58;;;;;;;5.23;2.97;;;22.70;99.90;;;;;;5137985;27;20477;-64
2023/06/30 09:59:25;;;;;;;3.20;2.60;;;23.70;99.90;;;;;;5121976;28;20512;-63
2023/06/30 10:01:55;;;;;;;2.97;2.03;;;23.30;99.90;;;;;;5123790;28;20515;-64
2023/06/30 10:04:22;;;;;;;3.30;2.83;;;23.30;99.90;;;;;;5123157;28;20547;-64
2023/06/30 10:06:52;;;;;;;3.63;2.30;;;23.30;99.90;;;;;;5122527;28;20853;-65
2023/06/30 10:09:21;;;;;;;3.43;2.30;;;23.20;99.90;;;;;;5127442;28;20771;-65
2023/06/30 10:11:52;;;;;;;2.90;2.40;;;23.70;99.90;;;;;;5139707;27;20470;-65
2023/06/30 10:14:21;;;;;;;3.40;2.40;;;23.80;99.90;;;;;;5140928;27;20467;-64
2023/06/30 10:16:49;;;;;;;3.30;2.80;;;23.80;99.90;;;;;;5136402;27;20469;-64
2023/06/30 10:19:17;;;;;;;5.27;2.70;;;22.80;99.90;;;;;;5144997;27;20459;-64
2023/06/30 10:21:44;;;;;;;2.80;2.47;;;22.20;99.90;;;;;;5126203;27;20447;-64
2023/06/30 10:24:13;;;;;;;2.97;2.17;;;22.20;99.90;;;;;;5126444;28;20455;-65
2023/06/30 10:26:41;;;;;;;3.60;2.57;;;22.70;1.00;;;;;;5128953;28;20447;-64
2023/06/30 10:29:08;;;;;;;3.07;1.80;;;23.00;1.00;;;;;;5140233;27;20489;-65
2023/06/30 10:31:36;;;;;;;3.87;2.60;;;24.30;1.00;;;;;;5147169;27;20875;-66
2023/06/30 10:34:05;;;;;;;4.10;2.40;;;24.90;1.00;;;;;;5141224;27;20900;-66
2023/06/30 10:36:35;;;;;;;4.63;2.47;;;25.60;1.00;;;;;;5143742;27;20879;-65
2023/06/30 10:39:02;;;;;;;2.73;2.30;;;23.60;1.00;;;;;;5145952;27;20465;-66
2023/06/30 10:41:29;;;;;;;2.63;2.23;;;24.10;1.00;;;;;;5135657;27;20463;-65
2023/06/30 10:44:07;;;;;;;4.50;2.90;;;24.20;1.00;;;;;;5124445;28;20872;-66
2023/06/30 10:46:43;;;;;;;3.47;2.80;;;25.30;1.00;;;;;;5127430;27;20957;-66
2023/06/30 10:49:18;;;;;;;2.93;2.63;;;24.50;1.00;;;;;;5142006;27;20482;-66
2023/06/30 10:51:49;;;;;;;3.77;2.53;;;25.10;1.00;;;;;;5122371;27;20466;-68
2023/06/30 10:54:23;;;;;;;5.53;2.57;;;23.20;1.00;;;;;;5121456;27;20470;-66
2023/06/30 10:56:52;;;;;;;2.40;2.20;;;22.60;1.00;;;;;;5121000;28;20454;-66
2023/06/30 10:59:22;;;;;;;2.50;2.30;;;22.50;1.00;;;;;;5120790;28;20733;-65
2023/06/30 11:02:12;;;;;;;5.67;2.70;;;22.70;1.00;;;;;;5121687;28;20498;-65
2023/06/30 11:04:40;;;;;;;2.20;2.00;;;22.30;1.00;;;;;;5122263;27;20470;-66
2023/06/30 11:07:10;;;;;;;2.93;2.60;;;22.20;1.00;;;;;;5128831;27;20458;-66
2023/06/30 11:09:58;;;;;;;3.70;2.37;;;22.10;1.00;;;;;;5137186;27;20486;-67
2023/06/30 11:12:27;;;;;;;3.77;2.30;;;22.20;1.00;;;;;;5130111;27;20465;-66
2023/06/30 11:14:57;;;;;;;2.30;2.10;;;21.50;1.00;;;;;;5136302;27;20527;-66
2023/06/30 11:17:24;;;;;;;3.50;2.50;;;22.60;1.00;;;;;;5125619;27;20574;-71
2023/06/30 11:20:12;;;;;;;3.00;2.47;;;22.10;1.00;;;;;;5138080;27;20756;-68
2023/06/30 11:22:42;;;;;;;3.17;2.50;;;22.30;1.00;;;;;;5146132;27;20471;-68
2023/06/30 11:25:11;;;;;;;4.30;2.30;;;22.10;1.00;;;;;;5135491;27;20565;-68
2023/06/30 11:27:40;;;;;;;4.27;2.50;;;23.10;1.00;;;;;;5130069;27;20501;-69
2023/06/30 11:30:08;;;;;;;2.57;2.37;;;24.10;1.00;;;;;;5124608;27;20480;-70
2023/06/30 11:32:37;;;;;;;2.63;2.43;;;24.30;1.00;;;;;;5117072;27;20463;-67
2023/06/30 11:35:07;;;;;;;2.67;2.47;;;22.50;1.00;;;;;;5137042;27;20485;-67
2023/06/30 11:37:36;;;;;;;2.60;2.40;;;22.20;1.00;;;;;;5136737;27;20466;-66
2023/06/30 11:40:07;;;;;;;4.03;2.50;;;21.40;1.00;;;;;;5136984;27;20463;-65
2023/06/30 11:42:39;;;;;;;6.27;3.30;;;21.60;1.00;;;;;;5132940;27;20477;-66
2023/06/30 11:45:07;;;;;;;3.20;2.90;;;21.80;1.00;;;;;;5140723;27;20469;-65
2023/06/30 11:47:35;;;;;;;3.40;2.80;;;21.80;1.00;;;;;;5145457;27;20470;-68
2023/06/30 11:50:07;;;;;;;3.40;2.70;;;21.80;1.00;;;;;;5129359;27;20459;-67
2023/06/30 11:52:35;;;;;;;4.33;2.40;;;21.00;1.00;;;;;;5118312;28;20779;-68
2023/06/30 11:55:07;;;;;;;4.07;3.07;;;21.30;1.00;;;;;;5118277;27;20856;-69
2023/06/30 11:57:46;;;;;;;5.60;3.10;;;21.80;1.00;;;;;;5138271;27;20466;-68
2023/06/30 12:00:16;;;;;;;3.27;2.97;;;22.40;1.00;;;;;;5132510;27;20467;-67
2023/06/30 12:02:45;;;;;;;3.43;2.83;;;23.00;1.00;;;;;;5138913;27;20493;-68
2023/06/30 12:05:14;;;;;;;3.50;2.60;;;22.60;1.00;;;;;;5134072;27;20494;-67
2023/06/30 12:07:43;;;;;;;4.37;2.90;;;22.90;1.00;;;;;;5128158;27;20466;-68
2023/06/30 12:10:12;;;;;;;3.97;2.60;;;22.50;1.00;;;;;;5121137;27;20458;-69
2023/06/30 12:12:39;;;;;;;4.10;3.17;;;21.70;1.00;;;;;;5137659;27;20457;-69
2023/06/30 12:15:09;;;;;;;3.90;2.37;;;22.40;1.00;;;;;;5135654;27;20959;-67
2023/06/30 12:17:42;;;;;;;3.97;2.80;;;23.70;1.00;;;;;;5145228;27;20466;-69
2023/06/30 12:20:10;;;;;;;2.90;2.60;;;23.70;1.00;;;;;;5143118;27;20770;-69
2023/06/30 12:22:41;;;;;;;4.60;3.23;;;23.60;1.00;;;;;;5137061;27;20470;-69
2023/06/30 12:25:11;;;;;;;3.80;2.80;;;23.60;1.00;;;;;;5135617;27;20921;-70
2023/06/30 12:27:43;;;;;;;4.67;2.67;;;22.90;1.00;;;;;;5132788;27;20515;-68
2023/06/30 12:30:17;;;;;;;3.27;2.90;;;22.40;1.00;;;;;;5135599;27;20584;-67
2023/06/30 12:32:45;;;;;;;3.10;2.80;;;23.20;1.00;;;;;;5133856;27;20903;-69
2023/06/30 12:35:13;;;;;;;5.17;3.20;;;23.50;1.00;;;;;;5137369;27;20455;-70
2023/06/30 12:37:44;;;;;;;3.47;2.50;;;23.10;1.00;;;;;;5137115;27;20564;-66
2023/06/30 12:40:13;;;;;;;6.33;3.40;;;21.90;1.00;;;;;;5136721;27;20536;-70
2023/06/30 12:42:48;;;;;;;3.47;2.60;;;22.20;1.00;;;;;;5138347;27;20557;-71
2023/06/30 12:45:15;;;;;;;2.93;2.70;;;22.40;1.00;;;;;;5136528;27;20462;-67
2023/06/30 12:47:42;;;;;;;4.63;2.70;;;22.60;1.00;;;;;;5153309;27;20552;-68
2023/06/30 12:50:11;;;;;;;3.80;2.33;;;22.50;1.00;;;;;;5146892;27;20495;-68
2023/06/30 12:52:38;;;;;;;2.80;2.60;;;22.20;1.00;;;;;;5118497;28;20459;-70